createdAt,value
2018-05-09T00:01:40.615Z,99.90
2018-05-09T00:04:08.196Z,99.90
2018-05-09T00:06:35.716Z,99.90
2018-05-09T00:09:03.306Z,99.90
2018-05-09T00:11:31.602Z,99.90
2018-05-09T00:13:59.214Z,99.90
2018-05-09T00:16:26.752Z,99.90
2018-05-09T00:18:54.313Z,99.90
2018-05-09T00:21:22.614Z,99.90
2018-05-09T00:23:50.168Z,99.90
2018-05-09T00:26:18.495Z,99.90
2018-05-09T00:28:46.050Z,99.90
2018-05-09T00:31:13.626Z,99.90
2018-05-09T00:33:41.481Z,99.90
2018-05-09T00:36:09.789Z,99.90
2018-05-09T00:38:37.331Z,99.90
2018-05-09T00:41:04.932Z,99.90
2018-05-09T00:43:32.469Z,99.90
2018-05-09T00:46:00.040Z,99.90
2018-05-09T00:48:27.578Z,99.90
2018-05-09T00:50:55.169Z,99.90
2018-05-09T00:53:22.670Z,99.90
2018-05-09T00:55:50.228Z,99.90
2018-05-09T00:58:17.777Z,99.90
2018-05-09T01:00:45.352Z,99.90
2018-05-09T01:03:12.888Z,99.90
2018-05-09T01:05:40.464Z,99.90
2018-05-09T01:08:08.005Z,99.90
2018-05-09T01:10:36.320Z,99.90
2018-05-09T01:13:03.871Z,99.90
2018-05-09T01:15:32.226Z,99.90
2018-05-09T01:17:59.801Z,99.90
2018-05-09T01:20:27.337Z,99.90
2018-05-09T01:22:54.911Z,99.90
2018-05-09T01:25:22.473Z,99.90
2018-05-09T01:27:50.016Z,99.90
2018-05-09T01:30:18.359Z,99.90
2018-05-09T01:32:45.935Z,99.90
2018-05-09T01:35:13.494Z,99.90
2018-05-09T01:37:41.084Z,99.90
2018-05-09T01:40:08.661Z,99.90
2018-05-09T01:42:36.203Z,99.90
2018-05-09T01:45:03.813Z,99.90
2018-05-09T01:47:31.316Z,99.90
2018-05-09T01:49:59.642Z,99.90
2018-05-09T01:52:27.212Z,99.90
2018-05-09T01:54:54.813Z,99.90
2018-05-09T01:57:23.080Z,99.90
2018-05-09T01:59:50.604Z,99.90
2018-05-09T02:02:18.144Z,99.90
2018-05-09T02:04:45.698Z,99.90
2018-05-09T02:07:13.251Z,99.90
2018-05-09T02:09:40.766Z,99.90
2018-05-09T02:12:08.345Z,99.90
2018-05-09T02:14:35.869Z,99.90
2018-05-09T02:17:03.436Z,99.90
2018-05-09T02:19:31.005Z,99.90
2018-05-09T02:21:58.536Z,99.90
2018-05-09T02:24:26.043Z,99.90
2018-05-09T02:26:54.395Z,99.90
2018-05-09T02:29:21.971Z,99.90
2018-05-09T02:31:49.535Z,99.90
2018-05-09T02:34:17.071Z,99.90
2018-05-09T02:36:44.604Z,99.90
2018-05-09T02:39:12.914Z,99.90
2018-05-09T02:41:40.471Z,99.90
2018-05-09T02:44:08.833Z,99.90
2018-05-09T02:46:36.380Z,99.90
2018-05-09T02:49:03.900Z,99.90
2018-05-09T02:51:32.212Z,99.90
2018-05-09T02:53:59.782Z,99.90
2018-05-09T02:56:27.388Z,99.90
2018-05-09T02:58:54.960Z,99.90
2018-05-09T03:01:22.501Z,99.90
2018-05-09T03:03:50.050Z,99.90
2018-05-09T03:06:18.427Z,99.90
2018-05-09T03:08:45.957Z,99.90
2018-05-09T03:11:13.494Z,99.90
2018-05-09T03:13:41.829Z,99.90
2018-05-09T03:16:09.385Z,99.90
2018-05-09T03:18:36.950Z,99.90
2018-05-09T03:21:04.520Z,99.90
2018-05-09T03:23:32.081Z,99.90
2018-05-09T03:26:00.379Z,99.90
2018-05-09T03:28:27.917Z,99.90
2018-05-09T03:30:55.470Z,99.90
2018-05-09T03:33:23.112Z,99.90
2018-05-09T03:35:50.747Z,99.90
2018-05-09T03:38:18.304Z,99.90
2018-05-09T03:40:46.700Z,99.90
2018-05-09T03:43:14.255Z,99.90
2018-05-09T03:45:41.777Z,99.90
2018-05-09T03:48:09.344Z,99.90
2018-05-09T03:50:36.902Z,99.90
2018-05-09T03:53:05.196Z,99.90
2018-05-09T03:55:33.512Z,99.90
2018-05-09T03:58:01.044Z,99.90
2018-05-09T04:00:29.373Z,99.90
2018-05-09T04:03:09.891Z,99.90
2018-05-09T04:05:49.338Z,99.90
2018-05-09T04:11:18.601Z,99.90
2018-05-09T04:13:46.127Z,99.90
2018-05-09T04:16:13.644Z,99.90
2018-05-09T04:18:41.182Z,99.90
2018-05-09T04:21:08.732Z,99.90
2018-05-09T04:23:36.280Z,99.90
2018-05-09T04:26:04.595Z,99.90
2018-05-09T04:28:32.120Z,99.90
2018-05-09T04:30:59.662Z,99.90
2018-05-09T04:33:27.835Z,99.90
2018-05-09T04:35:55.387Z,99.90
2018-05-09T04:38:22.953Z,99.90
2018-05-09T04:40:50.525Z,99.90
2018-05-09T04:43:18.142Z,99.90
2018-05-09T04:45:45.774Z,99.90
2018-05-09T04:48:13.463Z,99.90
2018-05-09T04:50:41.032Z,99.90
2018-05-09T04:53:08.546Z,99.90
2018-05-09T04:55:36.177Z,99.90
2018-05-09T04:58:03.700Z,99.90
2018-05-09T05:00:31.302Z,99.90
2018-05-09T05:02:58.892Z,99.90
2018-05-09T05:05:26.434Z,99.90
2018-05-09T05:07:54.808Z,99.90
2018-05-09T05:10:22.318Z,99.90
2018-05-09T05:12:50.684Z,99.90
2018-05-09T05:15:18.986Z,99.90
2018-05-09T05:17:47.495Z,99.90
2018-05-09T05:20:15.143Z,99.90
2018-05-09T05:22:43.578Z,97.90
2018-05-09T05:25:11.182Z,97.80
2018-05-09T05:27:38.792Z,96.20
2018-05-09T05:30:07.102Z,87.90
2018-05-09T05:32:34.612Z,87.90
2018-05-09T05:35:02.138Z,80.80
2018-05-09T05:37:29.748Z,75.70
2018-05-09T05:39:57.380Z,72.50
2018-05-09T05:42:24.935Z,71.50
2018-05-09T05:44:53.317Z,66.40
2018-05-09T05:47:20.830Z,66.40
2018-05-09T05:49:48.565Z,63.70
2018-05-09T05:52:16.275Z,60.00
2018-05-09T05:54:43.887Z,59.40
2018-05-09T05:57:12.202Z,55.50
2018-05-09T05:59:40.039Z,56.10
2018-05-09T06:02:07.660Z,54.00
2018-05-09T06:04:36.027Z,51.80
2018-05-09T06:07:03.584Z,51.60
2018-05-09T06:09:31.329Z,52.40
2018-05-09T06:11:58.900Z,51.70
2018-05-09T06:14:26.571Z,51.80
2018-05-09T06:16:54.245Z,50.00
2018-05-09T06:19:21.853Z,49.00
2018-05-09T06:21:49.513Z,48.50
2018-05-09T06:24:17.136Z,47.70
2018-05-09T06:26:44.668Z,47.50
2018-05-09T06:29:12.309Z,47.60
2018-05-09T06:31:41.073Z,47.40
2018-05-09T06:34:08.661Z,47.20
2018-05-09T06:36:36.189Z,45.30
2018-05-09T06:39:05.308Z,44.50
2018-05-09T06:41:33.178Z,44.50
2018-05-09T06:44:00.758Z,44.40
2018-05-09T06:46:28.278Z,43.80
2018-05-09T06:48:56.572Z,43.30
2018-05-09T06:51:24.089Z,43.30
2018-05-09T06:53:51.713Z,46.50
2018-05-09T06:56:19.980Z,42.80
2018-05-09T06:58:47.501Z,42.80
2018-05-09T07:01:15.012Z,42.10
2018-05-09T07:03:42.544Z,42.20
2018-05-09T07:06:10.151Z,43.00
2018-05-09T07:08:37.655Z,43.50
2018-05-09T07:11:06.006Z,41.00
2018-05-09T07:13:33.612Z,41.00
2018-05-09T07:16:01.921Z,40.90
2018-05-09T07:18:29.440Z,40.90
2018-05-09T07:20:56.986Z,41.80
2018-05-09T07:23:24.493Z,40.40
2018-05-09T07:25:52.057Z,41.20
2018-05-09T07:28:19.728Z,40.90
2018-05-09T07:30:47.245Z,41.40
2018-05-09T07:33:15.525Z,40.80
2018-05-09T07:35:43.827Z,41.00
2018-05-09T07:38:11.338Z,40.90
2018-05-09T07:40:38.857Z,40.70
2018-05-09T07:43:07.163Z,42.10
2018-05-09T07:45:34.700Z,42.10
2018-05-09T07:48:02.201Z,40.70
2018-05-09T07:50:29.762Z,40.90
2018-05-09T07:52:58.060Z,41.20
2018-05-09T07:55:25.656Z,41.30
2018-05-09T07:57:53.201Z,41.50
2018-05-09T08:00:21.497Z,41.20
2018-05-09T08:02:49.032Z,41.20
2018-05-09T08:05:16.557Z,42.30
2018-05-09T08:07:44.056Z,41.50
2018-05-09T08:10:11.694Z,41.40
2018-05-09T08:12:39.189Z,41.70
2018-05-09T08:15:06.770Z,41.40
2018-05-09T08:17:34.275Z,40.60
2018-05-09T08:20:02.602Z,40.00
2018-05-09T08:22:30.111Z,40.00
2018-05-09T08:24:57.619Z,40.00
2018-05-09T08:27:25.137Z,39.70
2018-05-09T08:29:52.662Z,38.20
2018-05-09T08:32:20.978Z,38.90
2018-05-09T08:34:48.477Z,38.80
2018-05-09T08:37:16.046Z,39.80
2018-05-09T08:39:43.645Z,38.90
2018-05-09T08:42:11.244Z,38.40
2018-05-09T08:44:38.782Z,37.80
2018-05-09T08:47:06.350Z,38.10
2018-05-09T08:49:33.905Z,38.10
2018-05-09T08:52:01.442Z,38.70
2018-05-09T08:54:28.955Z,36.20
2018-05-09T08:56:56.472Z,36.40
2018-05-09T08:59:24.853Z,36.70
2018-05-09T09:01:52.296Z,36.70
2018-05-09T09:04:19.875Z,37.40
2018-05-09T09:06:47.419Z,36.70
2018-05-09T09:09:14.939Z,35.90
2018-05-09T09:11:43.334Z,36.80
2018-05-09T09:14:11.631Z,36.40
2018-05-09T09:16:39.141Z,36.40
2018-05-09T09:19:06.671Z,36.80
2018-05-09T09:21:35.107Z,36.70
2018-05-09T09:24:02.702Z,36.60
2018-05-09T09:26:30.219Z,36.70
2018-05-09T09:28:57.742Z,35.80
2018-05-09T09:31:25.350Z,37.00
2018-05-09T09:33:53.711Z,37.40
2018-05-09T09:36:21.257Z,37.30
2018-05-09T09:38:48.794Z,37.90
2018-05-09T09:41:16.331Z,38.10
2018-05-09T09:43:43.926Z,37.40
2018-05-09T09:46:12.229Z,39.60
2018-05-09T09:48:39.766Z,39.60
2018-05-09T09:51:07.278Z,41.00
2018-05-09T09:53:35.121Z,44.20
2018-05-09T09:56:03.558Z,44.30
2018-05-09T09:58:31.090Z,44.30
2018-05-09T10:00:59.395Z,45.50
2018-05-09T10:03:27.845Z,45.80
2018-05-09T10:05:55.417Z,45.80
2018-05-09T10:08:22.990Z,48.10
2018-05-09T10:10:50.504Z,48.30
2018-05-09T10:13:18.798Z,48.30
2018-05-09T10:15:46.369Z,48.20
2018-05-09T10:18:14.995Z,48.90
2018-05-09T10:20:42.509Z,48.90
2018-05-09T10:23:10.445Z,48.80
2018-05-09T10:25:37.900Z,49.00
2018-05-09T10:28:05.809Z,50.50
2018-05-09T10:30:33.421Z,49.50
2018-05-09T10:33:01.707Z,49.70
2018-05-09T10:35:29.260Z,49.20
2018-05-09T10:37:56.777Z,50.60
2018-05-09T10:40:24.510Z,50.20
2018-05-09T10:42:52.438Z,49.00
2018-05-09T10:45:19.981Z,49.70
2018-05-09T10:47:47.497Z,49.40
2018-05-09T10:50:15.143Z,49.20
2018-05-09T10:52:43.412Z,49.20
2018-05-09T10:55:10.928Z,49.10
2018-05-09T10:57:38.432Z,47.50
2018-05-09T11:00:06.014Z,48.50
2018-05-09T11:02:33.973Z,48.10
2018-05-09T11:05:01.567Z,48.20
2018-05-09T11:07:29.061Z,47.00
2018-05-09T11:09:57.386Z,48.70
2018-05-09T11:12:24.930Z,48.60
2018-05-09T11:14:53.320Z,48.40
2018-05-09T11:17:21.597Z,48.50
2018-05-09T11:19:49.921Z,49.60
2018-05-09T11:22:17.487Z,50.00
2018-05-09T11:24:45.209Z,49.70
2018-05-09T11:27:13.478Z,48.10
2018-05-09T11:29:41.094Z,48.10
2018-05-09T11:32:08.761Z,46.10
2018-05-09T11:34:36.277Z,44.70
2018-05-09T11:37:03.795Z,45.40
2018-05-09T11:39:31.316Z,45.40
2018-05-09T11:41:58.962Z,44.00
2018-05-09T11:44:27.231Z,43.90
2018-05-09T11:46:54.781Z,43.80
2018-05-09T11:49:22.417Z,44.40
2018-05-09T11:51:49.954Z,45.30
2018-05-09T11:54:17.537Z,44.70
2018-05-09T11:56:46.046Z,45.10
2018-05-09T11:59:13.569Z,45.10
2018-05-09T12:01:41.115Z,46.00
2018-05-09T12:04:08.773Z,44.80
2018-05-09T12:06:36.328Z,45.70
2018-05-09T12:09:04.603Z,46.60
2018-05-09T12:11:32.135Z,46.50
2018-05-09T12:13:59.640Z,45.60
2018-05-09T12:16:27.285Z,46.40
2018-05-09T12:18:54.798Z,46.20
2018-05-09T12:21:23.070Z,47.30
2018-05-09T12:23:51.365Z,46.70
2018-05-09T12:26:18.973Z,46.70
2018-05-09T12:28:46.748Z,46.70
2018-05-09T12:31:14.393Z,46.70
2018-05-09T12:33:41.932Z,47.10
2018-05-09T12:36:09.560Z,47.00
2018-05-09T12:38:37.893Z,47.20
2018-05-09T12:41:05.391Z,47.10
2018-05-09T12:43:32.914Z,46.40
2018-05-09T12:46:00.457Z,47.10
2018-05-09T12:48:28.765Z,43.50
2018-05-09T12:50:56.353Z,43.50
2018-05-09T12:53:23.885Z,44.80
2018-05-09T12:55:52.154Z,45.90
2018-05-09T12:58:19.748Z,45.90
2018-05-09T13:00:48.019Z,44.20
2018-05-09T13:03:16.448Z,42.60
2018-05-09T13:05:44.057Z,42.50
2018-05-09T13:08:12.297Z,43.60
2018-05-09T13:10:40.847Z,45.10
2018-05-09T13:13:08.427Z,45.10
2018-05-09T13:15:35.952Z,44.40
2018-05-09T13:18:03.492Z,45.30
2018-05-09T13:20:31.036Z,44.90
2018-05-09T13:22:58.533Z,45.30
2018-05-09T13:25:26.061Z,45.60
2018-05-09T13:27:53.649Z,45.00
2018-05-09T13:30:21.175Z,44.70
2018-05-09T13:32:48.685Z,44.00
2018-05-09T13:35:16.329Z,44.10
2018-05-09T13:37:43.840Z,44.60
2018-05-09T13:40:11.526Z,45.10
2018-05-09T13:42:39.012Z,43.80
2018-05-09T13:45:07.354Z,44.00
2018-05-09T13:47:34.922Z,43.90
2018-05-09T13:50:02.459Z,44.20
2018-05-09T13:52:30.784Z,42.30
2018-05-09T13:54:58.306Z,42.20
2018-05-09T13:57:26.589Z,42.30
2018-05-09T13:59:54.113Z,42.30
2018-05-09T14:02:21.666Z,43.90
2018-05-09T14:04:49.191Z,43.00
2018-05-09T14:07:16.786Z,43.80
2018-05-09T14:09:44.415Z,43.90
2018-05-09T14:12:11.878Z,43.80
2018-05-09T14:14:39.410Z,43.80
2018-05-09T14:17:07.682Z,43.00
2018-05-09T14:19:35.216Z,42.90
2018-05-09T14:22:02.732Z,43.00
2018-05-09T14:24:30.341Z,43.50
2018-05-09T14:26:57.902Z,43.40
2018-05-09T14:29:25.469Z,44.00
2018-05-09T14:31:52.977Z,44.20
2018-05-09T14:34:20.514Z,44.20
2018-05-09T14:36:48.044Z,44.20
2018-05-09T14:39:22.344Z,44.20
2018-05-09T14:41:49.894Z,43.10
2018-05-09T14:44:17.449Z,44.10
2018-05-09T14:46:45.059Z,43.30
2018-05-09T14:49:12.586Z,43.30
2018-05-09T14:51:40.937Z,42.90
2018-05-09T14:54:08.439Z,42.90
2018-05-09T14:56:36.029Z,43.10
2018-05-09T14:59:04.298Z,44.00
2018-05-09T15:01:31.823Z,43.90
2018-05-09T15:03:59.321Z,42.30
2018-05-09T15:06:26.846Z,43.20
2018-05-09T15:08:54.358Z,41.90
2018-05-09T15:11:21.871Z,42.40
2018-05-09T15:13:50.157Z,43.50
2018-05-09T15:16:17.724Z,43.40
2018-05-09T15:18:45.998Z,44.10
2018-05-09T15:21:13.831Z,44.00
2018-05-09T15:23:41.336Z,44.20
2018-05-09T15:26:08.861Z,44.20
2018-05-09T15:28:36.360Z,44.20
2018-05-09T15:31:03.936Z,45.50
2018-05-09T15:33:31.447Z,45.10
2018-05-09T15:35:59.745Z,44.70
2018-05-09T15:38:28.151Z,45.10
2018-05-09T15:40:55.673Z,45.10
2018-05-09T15:43:23.185Z,45.20
2018-05-09T15:45:51.492Z,46.40
2018-05-09T15:48:19.052Z,46.40
2018-05-09T15:50:46.646Z,46.00
2018-05-09T15:53:14.365Z,46.50
2018-05-09T15:55:41.917Z,46.70
2018-05-09T15:58:09.765Z,47.10
2018-05-09T16:00:37.500Z,47.10
2018-05-09T16:03:05.488Z,47.90
2018-05-09T16:05:33.802Z,48.20
2018-05-09T16:08:01.581Z,47.70
2018-05-09T16:10:29.369Z,47.50
2018-05-09T16:12:56.977Z,47.80
2018-05-09T16:15:24.764Z,47.80
2018-05-09T16:17:52.308Z,47.60
2018-05-09T16:20:19.874Z,47.40
2018-05-09T16:22:47.462Z,48.70
2018-05-09T16:25:14.992Z,48.20
2018-05-09T16:27:43.355Z,48.10
2018-05-09T16:30:11.065Z,48.10
2018-05-09T16:32:44.381Z,49.00
2018-05-09T16:35:12.022Z,48.40
2018-05-09T16:37:39.608Z,48.20
2018-05-09T16:40:07.144Z,48.50
2018-05-09T16:42:34.723Z,48.50
2018-05-09T16:45:02.321Z,48.80
2018-05-09T16:47:30.684Z,49.50
2018-05-09T16:49:58.244Z,49.50
2018-05-09T16:52:25.764Z,48.70
2018-05-09T16:54:54.041Z,49.40
2018-05-09T16:57:22.390Z,50.70
2018-05-09T16:59:49.969Z,50.70
2018-05-09T17:02:17.849Z,50.40
2018-05-09T17:04:45.412Z,51.00
2018-05-09T17:07:13.004Z,51.60
2018-05-09T17:09:40.490Z,51.80
2018-05-09T17:12:08.790Z,51.80
2018-05-09T17:14:37.061Z,52.60
2018-05-09T17:17:04.632Z,52.60
2018-05-09T17:19:32.216Z,52.70
2018-05-09T17:22:17.953Z,53.10
2018-05-09T17:24:45.529Z,53.00
2018-05-09T17:27:13.008Z,53.30
2018-05-09T17:29:40.530Z,53.30
2018-05-09T17:32:08.821Z,54.90
2018-05-09T17:34:37.098Z,54.90
2018-05-09T17:37:04.628Z,54.60
2018-05-09T17:39:32.181Z,54.60
2018-05-09T17:41:59.700Z,55.80
2018-05-09T17:44:27.198Z,57.80
2018-05-09T17:46:55.510Z,61.50
2018-05-09T17:49:23.027Z,61.50
2018-05-09T17:51:50.558Z,61.50
2018-05-09T17:54:18.061Z,62.20
2018-05-09T17:56:45.596Z,64.00
2018-05-09T17:59:13.165Z,68.00
2018-05-09T18:01:40.683Z,66.00
2018-05-09T18:04:08.330Z,68.40
2018-05-09T18:06:35.839Z,69.00
2018-05-09T18:09:03.387Z,70.70
2018-05-09T18:11:30.958Z,71.70
2018-05-09T18:13:58.491Z,72.60
2018-05-09T18:16:26.012Z,71.60
2018-05-09T18:18:54.186Z,74.10
2018-05-09T18:21:21.713Z,73.70
2018-05-09T18:23:50.014Z,76.80
2018-05-09T18:26:17.533Z,76.80
2018-05-09T18:28:45.154Z,70.50
2018-05-09T18:31:12.726Z,69.80
2018-05-09T18:33:40.324Z,74.40
2018-05-09T18:36:07.868Z,80.70
2018-05-09T18:38:35.401Z,87.00
2018-05-09T18:41:02.938Z,90.40
2018-05-09T18:43:30.474Z,92.40
2018-05-09T18:45:58.775Z,92.40
2018-05-09T18:48:26.307Z,92.40
2018-05-09T18:50:53.819Z,91.90
2018-05-09T18:53:21.351Z,93.50
2018-05-09T18:55:49.198Z,94.90
2018-05-09T18:58:16.715Z,97.50
2018-05-09T19:00:44.989Z,98.10
2018-05-09T19:03:12.513Z,98.10
2018-05-09T19:05:40.164Z,94.80
2018-05-09T19:08:08.445Z,96.00
2018-05-09T19:10:36.743Z,96.10
2018-05-09T19:13:05.029Z,97.60
2018-05-09T19:15:33.297Z,97.30
2018-05-09T19:18:00.832Z,97.30
2018-05-09T19:20:28.349Z,98.20
2018-05-09T19:22:56.751Z,98.80
2018-05-09T19:25:25.062Z,99.90
2018-05-09T19:27:52.597Z,99.80
2018-05-09T19:30:20.194Z,99.90
2018-05-09T19:32:47.721Z,99.90
2018-05-09T19:35:15.260Z,99.90
2018-05-09T19:37:42.835Z,99.90
2018-05-09T19:40:10.402Z,99.90
2018-05-09T19:42:37.936Z,99.90
2018-05-09T19:45:05.467Z,99.90
2018-05-09T19:47:32.972Z,99.90
2018-05-09T19:50:00.601Z,99.90
2018-05-09T19:52:28.129Z,99.90
2018-05-09T19:54:56.424Z,99.90
2018-05-09T19:57:24.715Z,99.90
2018-05-09T19:59:52.350Z,99.90
2018-05-09T20:02:19.881Z,99.90
2018-05-09T20:04:47.874Z,99.90
2018-05-09T20:07:15.439Z,99.90
2018-05-09T20:09:42.989Z,99.90
2018-05-09T20:12:11.295Z,99.90
2018-05-09T20:14:38.836Z,99.90
2018-05-09T20:17:07.112Z,99.90
2018-05-09T20:19:34.654Z,99.90
2018-05-09T20:22:02.190Z,99.90
2018-05-09T20:24:29.731Z,99.90
2018-05-09T20:26:57.241Z,99.90
2018-05-09T20:29:24.809Z,99.90
2018-05-09T20:32:04.148Z,99.90
2018-05-09T20:34:32.460Z,99.90
2018-05-09T20:36:59.975Z,99.90
2018-05-09T20:39:28.313Z,99.90
2018-05-09T20:41:55.869Z,99.90
2018-05-09T20:44:24.159Z,99.90
2018-05-09T20:46:52.435Z,99.90
2018-05-09T20:49:20.741Z,99.90
2018-05-09T20:51:51.293Z,99.90
2018-05-09T20:54:18.857Z,99.90
2018-05-09T20:56:46.403Z,99.90
2018-05-09T20:59:13.948Z,99.90
2018-05-09T21:01:47.334Z,99.90
2018-05-09T21:04:14.876Z,99.90
2018-05-09T21:06:43.177Z,99.90
2018-05-09T21:09:10.858Z,99.90
2018-05-09T21:11:38.321Z,99.90
2018-05-09T21:14:05.865Z,99.90
2018-05-09T21:16:33.380Z,99.90
2018-05-09T21:19:00.957Z,99.90
2018-05-09T21:21:28.495Z,99.90
2018-05-09T21:23:56.780Z,99.90
2018-05-09T21:26:25.075Z,99.90
2018-05-09T21:28:53.351Z,99.90
2018-05-09T21:31:21.649Z,99.90
2018-05-09T21:33:49.214Z,99.90
2018-05-09T21:36:17.505Z,99.90
2018-05-09T21:38:45.825Z,99.90
2018-05-09T21:41:13.365Z,99.90
2018-05-09T21:43:41.689Z,99.90
2018-05-09T21:46:09.226Z,99.90
2018-05-09T21:48:37.548Z,99.90
2018-05-09T21:51:05.080Z,99.90
2018-05-09T21:53:32.661Z,99.90
2018-05-09T21:56:00.198Z,99.90
2018-05-09T21:58:27.743Z,99.90
2018-05-09T22:00:55.314Z,99.90
2018-05-09T22:03:22.828Z,99.90
2018-05-09T22:05:50.356Z,99.90
2018-05-09T22:08:17.909Z,99.90
2018-05-09T22:10:45.516Z,99.90
2018-05-09T22:13:13.752Z,99.90
2018-05-09T22:15:42.055Z,99.90
2018-05-09T22:18:10.324Z,99.90
2018-05-09T22:20:38.013Z,99.90
2018-05-09T22:23:06.325Z,99.90
2018-05-09T22:25:33.847Z,99.90
2018-05-09T22:28:01.357Z,99.90
2018-05-09T22:30:28.951Z,99.90
2018-05-09T22:32:56.482Z,99.90
2018-05-09T22:35:24.802Z,99.90
2018-05-09T22:37:52.366Z,99.90
2018-05-09T22:40:19.954Z,99.90
2018-05-09T22:42:47.468Z,99.90
2018-05-09T22:45:15.044Z,99.90
2018-05-09T22:47:42.648Z,99.90
2018-05-09T22:50:11.006Z,99.90
2018-05-09T22:52:38.559Z,99.90
2018-05-09T22:55:06.077Z,99.90
2018-05-09T22:57:34.398Z,99.90
2018-05-09T23:00:01.932Z,99.90
2018-05-09T23:02:30.242Z,99.90
2018-05-09T23:04:57.870Z,99.90
2018-05-09T23:07:25.428Z,99.90
2018-05-09T23:09:52.947Z,99.90
2018-05-09T23:12:21.246Z,99.90
2018-05-09T23:14:48.800Z,99.90
2018-05-09T23:17:17.106Z,99.90
2018-05-09T23:19:45.400Z,99.90
2018-05-09T23:22:12.956Z,99.90
2018-05-09T23:24:41.255Z,99.90
2018-05-09T23:27:09.559Z,99.90
2018-05-09T23:29:37.144Z,99.90
2018-05-09T23:32:04.712Z,99.90
2018-05-09T23:34:32.227Z,99.90
2018-05-09T23:37:01.301Z,99.90
2018-05-09T23:39:28.921Z,99.90
2018-05-09T23:41:56.386Z,99.90
2018-05-09T23:44:25.420Z,99.90
2018-05-09T23:46:52.966Z,99.90
2018-05-09T23:49:21.275Z,99.90
2018-05-09T23:51:49.607Z,99.90
2018-05-09T23:54:17.199Z,99.90
2018-05-09T23:56:44.757Z,99.90
2018-05-09T23:59:12.369Z,99.90
